sensor_id;sensor_type;location;lat;lon;timestamp;pressure;altitude;pressure_sealevel;temperature;humidity
55271;BME280;41132;47.162;9.470;2022-08-19T00:00:07;96195.81;;;17.84;100.00
55271;BME280;41132;47.162;9.470;2022-08-19T00:02:35;96176.63;;;17.75;100.00
55271;BME280;41132;47.162;9.470;2022-08-19T00:05:01;96193.06;;;18.17;100.00
55271;BME280;41132;47.162;9.470;2022-08-19T00:07:27;96176.53;;;18.08;100.00
55271;BME280;41132;47.162;9.470;2022-08-19T00:09:53;96182.88;;;18.01;100.00
55271;BME280;41132;47.162;9.470;2022-08-19T00:12:18;96185.00;;;17.85;100.00
55271;BME280;41132;47.162;9.470;2022-08-19T00:14:44;96188.84;;;17.89;100.00
55271;BME280;41132;47.162;9.470;2022-08-19T00:17:09;96192.34;;;17.90;100.00
55271;BME280;41132;47.162;9.470;2022-08-19T00:19:36;96197.81;;;18.02;100.00
55271;BME280;41132;47.162;9.470;2022-08-19T00:22:02;96191.28;;;17.98;100.00
55271;BME280;41132;47.162;9.470;2022-08-19T00:24:28;96180.69;;;17.91;100.00
55271;BME280;41132;47.162;9.470;2022-08-19T00:26:54;96181.72;;;17.90;100.00
55271;BME280;41132;47.162;9.470;2022-08-19T00:29:21;96190.66;;;17.95;100.00
55271;BME280;41132;47.162;9.470;2022-08-19T00:31:47;96182.53;;;17.90;100.00
55271;BME280;41132;47.162;9.470;2022-08-19T00:34:13;96195.00;;;17.90;100.00
55271;BME280;41132;47.162;9.470;2022-08-19T00:36:40;96191.28;;;17.91;100.00
55271;BME280;41132;47.162;9.470;2022-08-19T00:39:07;96182.72;;;17.75;100.00
55271;BME280;41132;47.162;9.470;2022-08-19T00:41:32;96175.22;;;17.59;100.00
55271;BME280;41132;47.162;9.470;2022-08-19T00:44:14;96156.06;;;17.37;100.00
55271;BME280;41132;47.162;9.470;2022-08-19T00:46:42;96164.00;;;17.57;100.00
55271;BME280;41132;47.162;9.470;2022-08-19T00:49:15;96155.63;;;17.60;100.00
55271;BME280;41132;47.162;9.470;2022-08-19T00:51:44;96152.97;;;17.67;100.00
55271;BME280;41132;47.162;9.470;2022-08-19T00:54:10;96153.53;;;17.75;100.00
55271;BME280;41132;47.162;9.470;2022-08-19T00:56:36;96138.84;;;17.73;100.00
55271;BME280;41132;47.162;9.470;2022-08-19T00:59:04;96149.41;;;18.00;100.00
55271;BME280;41132;47.162;9.470;2022-08-19T01:01:36;96150.59;;;18.10;100.00
55271;BME280;41132;47.162;9.470;2022-08-19T01:04:02;96140.28;;;17.82;100.00
55271;BME280;41132;47.162;9.470;2022-08-19T01:06:27;96145.41;;;17.64;100.00
55271;BME280;41132;47.162;9.470;2022-08-19T01:08:54;96146.03;;;17.66;100.00
55271;BME280;41132;47.162;9.470;2022-08-19T01:11:20;96126.25;;;17.55;100.00
55271;BME280;41132;47.162;9.470;2022-08-19T01:13:46;96153.59;;;17.62;100.00
55271;BME280;41132;47.162;9.470;2022-08-19T01:16:13;96160.31;;;17.65;100.00
55271;BME280;41132;47.162;9.470;2022-08-19T01:18:41;96162.56;;;17.61;100.00
55271;BME280;41132;47.162;9.470;2022-08-19T01:23:54;96152.59;;;17.37;100.00
55271;BME280;41132;47.162;9.470;2022-08-19T01:26:22;96160.19;;;17.33;100.00
55271;BME280;41132;47.162;9.470;2022-08-19T01:28:50;96153.03;;;17.40;100.00
55271;BME280;41132;47.162;9.470;2022-08-19T01:31:19;96151.78;;;17.49;100.00
55271;BME280;41132;47.162;9.470;2022-08-19T01:33:47;96142.41;;;17.47;100.00
55271;BME280;41132;47.162;9.470;2022-08-19T01:36:22;96155.88;;;17.39;100.00
55271;BME280;41132;47.162;9.470;2022-08-19T01:38:48;96147.94;;;17.25;100.00
55271;BME280;41132;47.162;9.470;2022-08-19T01:41:17;96150.59;;;17.25;100.00
55271;BME280;41132;47.162;9.470;2022-08-19T01:43:42;96131.00;;;17.33;100.00
55271;BME280;41132;47.162;9.470;2022-08-19T01:46:08;96138.72;;;17.48;100.00
55271;BME280;41132;47.162;9.470;2022-08-19T01:48:38;96136.06;;;17.48;100.00
55271;BME280;41132;47.162;9.470;2022-08-19T01:51:05;96122.16;;;17.52;100.00
55271;BME280;41132;47.162;9.470;2022-08-19T01:53:31;96127.47;;;17.59;100.00
55271;BME280;41132;47.162;9.470;2022-08-19T01:55:57;96120.75;;;17.57;100.00
55271;BME280;41132;47.162;9.470;2022-08-19T01:58:33;96118.69;;;17.59;100.00
55271;BME280;41132;47.162;9.470;2022-08-19T02:01:01;96129.50;;;17.57;100.00
55271;BME280;41132;47.162;9.470;2022-08-19T02:03:27;96142.38;;;17.60;100.00
55271;BME280;41132;47.162;9.470;2022-08-19T02:05:57;96132.78;;;17.52;100.00
55271;BME280;41132;47.162;9.470;2022-08-19T02:08:27;96129.53;;;17.44;100.00
55271;BME280;41132;47.162;9.470;2022-08-19T02:10:53;96119.97;;;17.43;100.00
55271;BME280;41132;47.162;9.470;2022-08-19T02:13:19;96121.97;;;17.54;100.00
55271;BME280;41132;47.162;9.470;2022-08-19T02:15:45;96128.50;;;17.58;100.00
55271;BME280;41132;47.162;9.470;2022-08-19T02:18:10;96131.34;;;17.63;100.00
55271;BME280;41132;47.162;9.470;2022-08-19T02:20:37;96144.41;;;17.65;100.00
55271;BME280;41132;47.162;9.470;2022-08-19T02:23:04;96155.03;;;17.58;100.00
55271;BME280;41132;47.162;9.470;2022-08-19T02:25:29;96155.41;;;17.68;100.00
55271;BME280;41132;47.162;9.470;2022-08-19T02:27:55;96153.75;;;17.74;100.00
55271;BME280;41132;47.162;9.470;2022-08-19T02:30:20;96143.16;;;17.67;100.00
55271;BME280;41132;47.162;9.470;2022-08-19T02:32:46;96148.25;;;17.69;100.00
55271;BME280;41132;47.162;9.470;2022-08-19T02:35:15;96131.56;;;17.48;100.00
55271;BME280;41132;47.162;9.470;2022-08-19T02:37:41;96136.69;;;17.43;100.00
55271;BME280;41132;47.162;9.470;2022-08-19T02:40:24;96134.44;;;17.53;100.00
55271;BME280;41132;47.162;9.470;2022-08-19T02:42:50;96139.91;;;17.59;100.00
55271;BME280;41132;47.162;9.470;2022-08-19T02:45:15;96141.34;;;17.61;100.00
55271;BME280;41132;47.162;9.470;2022-08-19T02:47:41;96141.94;;;17.70;100.00
55271;BME280;41132;47.162;9.470;2022-08-19T02:50:07;96143.69;;;17.96;100.00
55271;BME280;41132;47.162;9.470;2022-08-19T02:52:33;96136.78;;;17.88;100.00
55271;BME280;41132;47.162;9.470;2022-08-19T02:54:59;96138.22;;;17.78;100.00
55271;BME280;41132;47.162;9.470;2022-08-19T02:57:25;96134.56;;;17.72;100.00
55271;BME280;41132;47.162;9.470;2022-08-19T02:59:51;96147.63;;;17.73;100.00
55271;BME280;41132;47.162;9.470;2022-08-19T03:02:17;96148.03;;;17.70;100.00
55271;BME280;41132;47.162;9.470;2022-08-19T03:04:42;96155.00;;;17.71;100.00
55271;BME280;41132;47.162;9.470;2022-08-19T03:07:08;96151.09;;;17.74;100.00
55271;BME280;41132;47.162;9.470;2022-08-19T03:09:37;96146.78;;;17.80;100.00
55271;BME280;41132;47.162;9.470;2022-08-19T03:12:03;96147.59;;;17.80;100.00
55271;BME280;41132;47.162;9.470;2022-08-19T03:14:33;96143.53;;;17.71;100.00
55271;BME280;41132;47.162;9.470;2022-08-19T03:16:59;96148.47;;;17.67;100.00
55271;BME280;41132;47.162;9.470;2022-08-19T03:19:25;96147.25;;;17.70;100.00
55271;BME280;41132;47.162;9.470;2022-08-19T03:21:51;96129.72;;;17.62;100.00
55271;BME280;41132;47.162;9.470;2022-08-19T03:24:17;96131.34;;;17.57;100.00
55271;BME280;41132;47.162;9.470;2022-08-19T03:26:49;96125.22;;;17.63;100.00
55271;BME280;41132;47.162;9.470;2022-08-19T03:29:17;96117.44;;;17.68;100.00
55271;BME280;41132;47.162;9.470;2022-08-19T03:31:44;96125.81;;;17.71;100.00
55271;BME280;41132;47.162;9.470;2022-08-19T03:34:11;96119.63;;;17.78;100.00
55271;BME280;41132;47.162;9.470;2022-08-19T03:36:37;96114.44;;;17.51;100.00
55271;BME280;41132;47.162;9.470;2022-08-19T03:39:03;96112.16;;;17.54;100.00
55271;BME280;41132;47.162;9.470;2022-08-19T03:41:35;96112.78;;;17.57;100.00
55271;BME280;41132;47.162;9.470;2022-08-19T03:44:01;96107.88;;;17.60;100.00
55271;BME280;41132;47.162;9.470;2022-08-19T03:46:29;96104.47;;;17.46;100.00
55271;BME280;41132;47.162;9.470;2022-08-19T03:48:57;96093.41;;;17.49;100.00
55271;BME280;41132;47.162;9.470;2022-08-19T03:51:28;96088.28;;;17.54;100.00
55271;BME280;41132;47.162;9.470;2022-08-19T03:53:56;96079.31;;;17.62;100.00
55271;BME280;41132;47.162;9.470;2022-08-19T03:56:23;96095.00;;;17.57;100.00
55271;BME280;41132;47.162;9.470;2022-08-19T03:58:50;96086.25;;;17.50;100.00
55271;BME280;41132;47.162;9.470;2022-08-19T04:01:20;96086.66;;;17.60;100.00
55271;BME280;41132;47.162;9.470;2022-08-19T04:03:46;96089.22;;;17.73;100.00
55271;BME280;41132;47.162;9.470;2022-08-19T04:06:13;96095.13;;;17.89;100.00
55271;BME280;41132;47.162;9.470;2022-08-19T04:08:40;96107.97;;;17.99;100.00
55271;BME280;41132;47.162;9.470;2022-08-19T04:11:10;96104.31;;;17.93;100.00
55271;BME280;41132;47.162;9.470;2022-08-19T04:13:36;96107.56;;;17.95;100.00
55271;BME280;41132;47.162;9.470;2022-08-19T04:16:01;96103.53;;;17.86;100.00
55271;BME280;41132;47.162;9.470;2022-08-19T04:18:27;96087.19;;;17.75;100.00
55271;BME280;41132;47.162;9.470;2022-08-19T04:20:55;96093.09;;;17.78;100.00
55271;BME280;41132;47.162;9.470;2022-08-19T04:23:20;96089.03;;;17.75;100.00
55271;BME280;41132;47.162;9.470;2022-08-19T04:25:45;96098.41;;;17.78;100.00
55271;BME280;41132;47.162;9.470;2022-08-19T04:28:12;96108.41;;;17.75;100.00
55271;BME280;41132;47.162;9.470;2022-08-19T04:30:58;96121.53;;;17.57;100.00
55271;BME280;41132;47.162;9.470;2022-08-19T04:33:24;96120.72;;;17.63;100.00
55271;BME280;41132;47.162;9.470;2022-08-19T04:35:52;96137.63;;;17.82;100.00
55271;BME280;41132;47.162;9.470;2022-08-19T04:38:21;96123.16;;;17.71;100.00
55271;BME280;41132;47.162;9.470;2022-08-19T04:40:51;96128.06;;;17.61;100.00
55271;BME280;41132;47.162;9.470;2022-08-19T04:43:37;96122.34;;;17.58;100.00
55271;BME280;41132;47.162;9.470;2022-08-19T04:46:10;96132.38;;;17.56;100.00
55271;BME280;41132;47.162;9.470;2022-08-19T04:48:37;96141.13;;;17.69;100.00
55271;BME280;41132;47.162;9.470;2022-08-19T04:51:07;96146.81;;;17.73;100.00
55271;BME280;41132;47.162;9.470;2022-08-19T04:53:35;96165.38;;;17.80;100.00
55271;BME280;41132;47.162;9.470;2022-08-19T04:56:05;96165.78;;;17.77;100.00
55271;BME280;41132;47.162;9.470;2022-08-19T04:58:32;96160.50;;;17.77;100.00
55271;BME280;41132;47.162;9.470;2022-08-19T05:00:58;96160.03;;;17.93;100.00
55271;BME280;41132;47.162;9.470;2022-08-19T05:03:25;96152.75;;;17.82;100.00
55271;BME280;41132;47.162;9.470;2022-08-19T05:05:50;96167.00;;;17.81;100.00
55271;BME280;41132;47.162;9.470;2022-08-19T05:08:18;96168.47;;;17.83;100.00
55271;BME280;41132;47.162;9.470;2022-08-19T05:10:46;96161.56;;;17.62;100.00
55271;BME280;41132;47.162;9.470;2022-08-19T05:13:12;96169.69;;;17.67;100.00
55271;BME280;41132;47.162;9.470;2022-08-19T05:15:38;96153.63;;;17.56;100.00
55271;BME280;41132;47.162;9.470;2022-08-19T05:18:03;96155.44;;;17.55;100.00
55271;BME280;41132;47.162;9.470;2022-08-19T05:20:47;96159.94;;;17.54;100.00
55271;BME280;41132;47.162;9.470;2022-08-19T05:23:31;96164.22;;;17.62;100.00
55271;BME280;41132;47.162;9.470;2022-08-19T05:25:56;96171.59;;;17.47;100.00
55271;BME280;41132;47.162;9.470;2022-08-19T05:28:22;96170.16;;;17.44;100.00
55271;BME280;41132;47.162;9.470;2022-08-19T05:30:53;96167.88;;;17.54;100.00
55271;BME280;41132;47.162;9.470;2022-08-19T05:33:22;96170.53;;;17.61;100.00
55271;BME280;41132;47.162;9.470;2022-08-19T05:35:48;96177.25;;;17.70;100.00
55271;BME280;41132;47.162;9.470;2022-08-19T05:38:16;96163.97;;;17.84;100.00
55271;BME280;41132;47.162;9.470;2022-08-19T05:40:41;96163.50;;;18.00;100.00
55271;BME280;41132;47.162;9.470;2022-08-19T05:43:10;96153.72;;;17.94;100.00
55271;BME280;41132;47.162;9.470;2022-08-19T05:45:40;96149.44;;;17.80;100.00
55271;BME280;41132;47.162;9.470;2022-08-19T05:48:07;96155.38;;;17.82;100.00
55271;BME280;41132;47.162;9.470;2022-08-19T05:50:32;96158.44;;;17.79;100.00
55271;BME280;41132;47.162;9.470;2022-08-19T05:52:57;96152.75;;;17.82;100.00
55271;BME280;41132;47.162;9.470;2022-08-19T05:55:23;96151.50;;;17.84;100.00
55271;BME280;41132;47.162;9.470;2022-08-19T05:57:49;96150.88;;;17.89;100.00
55271;BME280;41132;47.162;9.470;2022-08-19T06:00:14;96156.38;;;17.94;100.00
55271;BME280;41132;47.162;9.470;2022-08-19T06:02:40;96151.28;;;17.92;100.00
55271;BME280;41132;47.162;9.470;2022-08-19T06:05:07;96148.00;;;17.97;100.00
55271;BME280;41132;47.162;9.470;2022-08-19T06:07:38;96148.81;;;17.98;100.00
55271;BME280;41132;47.162;9.470;2022-08-19T06:10:06;96153.31;;;17.97;100.00
55271;BME280;41132;47.162;9.470;2022-08-19T06:12:34;96148.41;;;17.94;100.00
55271;BME280;41132;47.162;9.470;2022-08-19T06:15:11;96140.63;;;17.99;100.00
55271;BME280;41132;47.162;9.470;2022-08-19T06:17:37;96148.81;;;17.98;100.00
55271;BME280;41132;47.162;9.470;2022-08-19T06:20:09;96151.44;;;18.04;100.00
55271;BME280;41132;47.162;9.470;2022-08-19T06:22:43;96142.47;;;17.99;100.00
55271;BME280;41132;47.162;9.470;2022-08-19T06:25:10;96150.03;;;17.95;100.00
55271;BME280;41132;47.162;9.470;2022-08-19T06:27:36;96144.53;;;17.97;100.00
55271;BME280;41132;47.162;9.470;2022-08-19T06:30:03;96133.03;;;18.03;100.00
55271;BME280;41132;47.162;9.470;2022-08-19T06:32:29;96144.69;;;18.08;100.00
55271;BME280;41132;47.162;9.470;2022-08-19T06:34:55;96148.00;;;17.97;100.00
55271;BME280;41132;47.162;9.470;2022-08-19T06:37:21;96154.13;;;17.91;100.00
55271;BME280;41132;47.162;9.470;2022-08-19T06:39:47;96150.47;;;17.92;100.00
55271;BME280;41132;47.162;9.470;2022-08-19T06:42:12;96156.41;;;17.87;100.00
55271;BME280;41132;47.162;9.470;2022-08-19T06:44:40;96157.41;;;17.93;100.00
55271;BME280;41132;47.162;9.470;2022-08-19T06:47:08;96148.41;;;17.94;100.00
55271;BME280;41132;47.162;9.470;2022-08-19T06:49:35;96149.22;;;18.01;100.00
55271;BME280;41132;47.162;9.470;2022-08-19T06:52:00;96143.72;;;17.89;100.00
55271;BME280;41132;47.162;9.470;2022-08-19T06:54:27;96156.16;;;17.95;100.00
55271;BME280;41132;47.162;9.470;2022-08-19T06:56:54;96156.78;;;17.91;100.00
55271;BME280;41132;47.162;9.470;2022-08-19T06:59:22;96161.72;;;17.81;100.00
55271;BME280;41132;47.162;9.470;2022-08-19T07:01:53;96153.75;;;17.81;100.00
55271;BME280;41132;47.162;9.470;2022-08-19T07:04:22;96162.28;;;17.89;100.00
55271;BME280;41132;47.162;9.470;2022-08-19T07:06:49;96147.44;;;17.82;100.00
55271;BME280;41132;47.162;9.470;2022-08-19T07:09:17;96153.75;;;17.81;100.00
55271;BME280;41132;47.162;9.470;2022-08-19T07:11:48;96156.59;;;17.92;100.00
55271;BME280;41132;47.162;9.470;2022-08-19T07:14:15;96161.91;;;17.92;100.00
55271;BME280;41132;47.162;9.470;2022-08-19T07:16:44;96163.13;;;17.97;100.00
55271;BME280;41132;47.162;9.470;2022-08-19T07:19:11;96161.31;;;17.84;100.00
55271;BME280;41132;47.162;9.470;2022-08-19T07:21:36;96173.94;;;17.95;100.00
55271;BME280;41132;47.162;9.470;2022-08-19T07:24:03;96177.00;;;17.92;100.00
55271;BME280;41132;47.162;9.470;2022-08-19T07:26:31;96163.34;;;17.82;100.00
55271;BME280;41132;47.162;9.470;2022-08-19T07:28:58;96175.56;;;17.96;100.00
55271;BME280;41132;47.162;9.470;2022-08-19T07:31:26;96184.34;;;18.03;100.00
55271;BME280;41132;47.162;9.470;2022-08-19T07:33:54;96182.53;;;17.90;100.00
55271;BME280;41132;47.162;9.470;2022-08-19T07:36:25;96180.88;;;17.89;100.00
55271;BME280;41132;47.162;9.470;2022-08-19T07:38:54;96182.34;;;17.85;100.00
55271;BME280;41132;47.162;9.470;2022-08-19T07:41:24;96183.94;;;17.93;100.00
55271;BME280;41132;47.162;9.470;2022-08-19T07:43:50;96188.03;;;17.89;100.00
55271;BME280;41132;47.162;9.470;2022-08-19T07:46:18;96185.59;;;17.94;100.00
55271;BME280;41132;47.162;9.470;2022-08-19T07:48:47;96187.84;;;17.90;100.00
55271;BME280;41132;47.162;9.470;2022-08-19T07:51:14;96192.97;;;17.85;100.00
55271;BME280;41132;47.162;9.470;2022-08-19T07:53:40;96201.13;;;17.70;100.00
55271;BME280;41132;47.162;9.470;2022-08-19T07:56:06;96206.84;;;17.67;100.00
55271;BME280;41132;47.162;9.470;2022-08-19T07:58:35;96202.78;;;17.71;100.00
55271;BME280;41132;47.162;9.470;2022-08-19T08:01:04;96212.97;;;17.81;100.00
55271;BME280;41132;47.162;9.470;2022-08-19T08:03:29;96217.84;;;17.84;100.00
55271;BME280;41132;47.162;9.470;2022-08-19T08:06:14;96217.44;;;17.81;100.00
55271;BME280;41132;47.162;9.470;2022-08-19T08:08:59;96217.66;;;17.86;100.00
55271;BME280;41132;47.162;9.470;2022-08-19T08:11:42;96225.59;;;17.79;100.00
55271;BME280;41132;47.162;9.470;2022-08-19T08:14:09;96227.28;;;17.67;100.00
55271;BME280;41132;47.162;9.470;2022-08-19T08:16:36;96232.53;;;17.73;100.00
55271;BME280;41132;47.162;9.470;2022-08-19T08:19:04;96234.38;;;17.80;100.00
55271;BME280;41132;47.162;9.470;2022-08-19T08:21:31;96230.72;;;17.81;100.00
55271;BME280;41132;47.162;9.470;2022-08-19T08:23:56;96242.16;;;17.88;100.00
55271;BME280;41132;47.162;9.470;2022-08-19T08:26:22;96237.84;;;17.73;100.00
55271;BME280;41132;47.162;9.470;2022-08-19T08:28:47;96234.81;;;17.63;100.00
55271;BME280;41132;47.162;9.470;2022-08-19T08:31:13;96243.78;;;17.75;100.00
55271;BME280;41132;47.162;9.470;2022-08-19T08:33:38;96238.88;;;17.79;100.00
55271;BME280;41132;47.162;9.470;2022-08-19T08:36:07;96234.63;;;17.71;100.00
55271;BME280;41132;47.162;9.470;2022-08-19T08:38:33;96239.72;;;17.53;100.00
55271;BME280;41132;47.162;9.470;2022-08-19T08:41:09;96251.78;;;17.49;100.00
55271;BME280;41132;47.162;9.470;2022-08-19T08:43:39;96245.84;;;17.60;100.00
55271;BME280;41132;47.162;9.470;2022-08-19T08:46:13;96247.66;;;17.66;100.00
55271;BME280;41132;47.162;9.470;2022-08-19T08:48:59;96255.25;;;17.56;100.00
55271;BME280;41132;47.162;9.470;2022-08-19T08:51:34;96259.13;;;17.40;100.00
55271;BME280;41132;47.162;9.470;2022-08-19T08:54:03;96264.44;;;17.60;100.00
55271;BME280;41132;47.162;9.470;2022-08-19T08:56:30;96258.69;;;17.63;100.00
55271;BME280;41132;47.162;9.470;2022-08-19T08:59:05;96266.47;;;17.58;100.00
55271;BME280;41132;47.162;9.470;2022-08-19T09:01:33;96269.50;;;17.42;100.00
55271;BME280;41132;47.162;9.470;2022-08-19T09:03:59;96279.53;;;17.40;100.00
55271;BME280;41132;47.162;9.470;2022-08-19T09:06:38;96271.16;;;17.63;100.00
55271;BME280;41132;47.162;9.470;2022-08-19T09:09:18;96284.00;;;17.72;100.00
55271;BME280;41132;47.162;9.470;2022-08-19T09:12:10;96280.75;;;17.70;100.00
55271;BME280;41132;47.162;9.470;2022-08-19T09:14:47;96289.13;;;17.61;100.00
55271;BME280;41132;47.162;9.470;2022-08-19T09:17:15;96284.63;;;17.61;100.00
55271;BME280;41132;47.162;9.470;2022-08-19T09:20:06;96282.59;;;17.57;100.00
55271;BME280;41132;47.162;9.470;2022-08-19T09:22:34;96288.50;;;17.65;100.00
55271;BME280;41132;47.162;9.470;2022-08-19T09:25:00;96276.28;;;17.51;100.00
55271;BME280;41132;47.162;9.470;2022-08-19T09:27:27;96287.91;;;17.57;100.00
55271;BME280;41132;47.162;9.470;2022-08-19T09:29:53;96278.91;;;17.64;100.00
55271;BME280;41132;47.162;9.470;2022-08-19T09:32:20;96284.00;;;17.72;100.00
55271;BME280;41132;47.162;9.470;2022-08-19T09:34:45;96281.75;;;17.89;100.00
55271;BME280;41132;47.162;9.470;2022-08-19T09:37:13;96286.06;;;17.84;100.00
55271;BME280;41132;47.162;9.470;2022-08-19T09:39:40;96290.13;;;17.73;100.00
55271;BME280;41132;47.162;9.470;2022-08-19T09:42:08;96289.31;;;17.72;100.00
55271;BME280;41132;47.162;9.470;2022-08-19T09:44:39;96286.66;;;17.66;100.00
55271;BME280;41132;47.162;9.470;2022-08-19T09:47:05;96287.47;;;17.53;100.00
55271;BME280;41132;47.162;9.470;2022-08-19T09:49:32;96289.31;;;17.59;100.00
55271;BME280;41132;47.162;9.470;2022-08-19T09:51:57;96272.41;;;17.47;100.00
55271;BME280;41132;47.162;9.470;2022-08-19T09:54:23;96289.94;;;17.48;100.00
55271;BME280;41132;47.162;9.470;2022-08-19T09:56:49;96292.59;;;17.48;100.00
55271;BME280;41132;47.162;9.470;2022-08-19T09:59:15;96294.63;;;17.59;100.00
55271;BME280;41132;47.162;9.470;2022-08-19T10:01:40;96292.59;;;17.68;100.00
55271;BME280;41132;47.162;9.470;2022-08-19T10:04:06;96290.97;;;17.67;100.00
55271;BME280;41132;47.162;9.470;2022-08-19T10:06:36;96290.94;;;17.73;100.00
55271;BME280;41132;47.162;9.470;2022-08-19T10:09:04;96289.31;;;17.66;100.00
55271;BME280;41132;47.162;9.470;2022-08-19T10:11:32;96301.97;;;17.70;100.00
55271;BME280;41132;47.162;9.470;2022-08-19T10:13:57;96300.53;;;17.74;100.00
55271;BME280;41132;47.162;9.470;2022-08-19T10:16:24;96307.69;;;17.81;100.00
55271;BME280;41132;47.162;9.470;2022-08-19T10:18:51;96290.75;;;17.62;100.00
55271;BME280;41132;47.162;9.470;2022-08-19T10:21:26;96304.81;;;17.69;100.00
55271;BME280;41132;47.162;9.470;2022-08-19T10:23:55;96309.31;;;17.68;100.00
55271;BME280;41132;47.162;9.470;2022-08-19T10:26:26;96316.06;;;17.71;100.00
55271;BME280;41132;47.162;9.470;2022-08-19T10:28:52;96313.19;;;17.66;100.00
55271;BME280;41132;47.162;9.470;2022-08-19T10:31:21;96307.09;;;17.72;100.00
55271;BME280;41132;47.162;9.470;2022-08-19T10:33:48;96312.59;;;17.70;100.00
55271;BME280;41132;47.162;9.470;2022-08-19T10:36:16;96319.75;;;17.63;100.00
55271;BME280;41132;47.162;9.470;2022-08-19T10:38:44;96325.25;;;17.62;100.00
55271;BME280;41132;47.162;9.470;2022-08-19T10:41:16;96317.09;;;17.57;100.00
55271;BME280;41132;47.162;9.470;2022-08-19T10:43:42;96319.13;;;17.61;100.00
55271;BME280;41132;47.162;9.470;2022-08-19T10:46:13;96319.94;;;17.55;100.00
55271;BME280;41132;47.162;9.470;2022-08-19T10:48:42;96325.03;;;17.57;100.00
55271;BME280;41132;47.162;9.470;2022-08-19T10:51:08;96328.50;;;17.50;100.00
55271;BME280;41132;47.162;9.470;2022-08-19T10:53:53;96324.41;;;17.41;100.00
55271;BME280;41132;47.162;9.470;2022-08-19T10:56:20;96328.50;;;17.50;100.00
55271;BME280;41132;47.162;9.470;2022-08-19T10:59:04;96318.72;;;17.51;100.00
55271;BME280;41132;47.162;9.470;2022-08-19T11:01:31;96323.63;;;17.54;100.00
55271;BME280;41132;47.162;9.470;2022-08-19T11:04:00;96326.28;;;17.54;100.00
55271;BME280;41132;47.162;9.470;2022-08-19T11:06:26;96314.22;;;17.38;100.00
55271;BME280;41132;47.162;9.470;2022-08-19T11:08:57;96327.28;;;17.40;100.00
55271;BME280;41132;47.162;9.470;2022-08-19T11:11:23;96319.09;;;17.41;100.00
55271;BME280;41132;47.162;9.470;2022-08-19T11:13:49;96315.22;;;17.44;100.00
55271;BME280;41132;47.162;9.470;2022-08-19T11:16:22;96317.28;;;17.48;100.00
55271;BME280;41132;47.162;9.470;2022-08-19T11:18:51;96304.63;;;17.37;100.00
55271;BME280;41132;47.162;9.470;2022-08-19T11:21:21;96316.06;;;17.44;100.00
55271;BME280;41132;47.162;9.470;2022-08-19T11:23:50;96311.75;;;17.37;100.00
55271;BME280;41132;47.162;9.470;2022-08-19T11:26:16;96322.38;;;17.37;100.00
55271;BME280;41132;47.162;9.470;2022-08-19T11:28:42;96323.59;;;17.34;100.00
55271;BME280;41132;47.162;9.470;2022-08-19T11:31:19;96325.41;;;17.20;100.00
55271;BME280;41132;47.162;9.470;2022-08-19T11:33:46;96327.63;;;17.17;100.00
55271;BME280;41132;47.162;9.470;2022-08-19T11:36:12;96330.50;;;17.15;100.00
55271;BME280;41132;47.162;9.470;2022-08-19T11:38:38;96331.31;;;17.09;100.00
55271;BME280;41132;47.162;9.470;2022-08-19T11:41:06;96343.53;;;17.17;100.00
55271;BME280;41132;47.162;9.470;2022-08-19T11:43:33;96347.22;;;17.09;100.00
55271;BME280;41132;47.162;9.470;2022-08-19T11:45:59;96348.41;;;17.00;100.00
55271;BME280;41132;47.162;9.470;2022-08-19T11:48:25;96342.84;;;16.81;100.00
55271;BME280;41132;47.162;9.470;2022-08-19T11:50:52;96339.91;;;16.63;100.00
55271;BME280;41132;47.162;9.470;2022-08-19T11:53:19;96339.22;;;16.47;100.00
55271;BME280;41132;47.162;9.470;2022-08-19T11:55:46;96346.69;;;16.37;100.00
55271;BME280;41132;47.162;9.470;2022-08-19T11:58:13;96351.41;;;16.42;100.00
55271;BME280;41132;47.162;9.470;2022-08-19T12:00:39;96352.84;;;16.44;100.00
55271;BME280;41132;47.162;9.470;2022-08-19T12:03:06;96354.88;;;16.42;100.00
55271;BME280;41132;47.162;9.470;2022-08-19T12:05:33;96348.28;;;16.32;100.00
55271;BME280;41132;47.162;9.470;2022-08-19T12:08:01;96354.25;;;16.40;100.00
55271;BME280;41132;47.162;9.470;2022-08-19T12:10:26;96358.53;;;16.41;100.00
55271;BME280;41132;47.162;9.470;2022-08-19T12:12:52;96354.84;;;16.36;100.00
55271;BME280;41132;47.162;9.470;2022-08-19T12:15:18;96346.00;;;16.22;100.00
55271;BME280;41132;47.162;9.470;2022-08-19T12:17:44;96360.91;;;16.29;100.00
55271;BME280;41132;47.162;9.470;2022-08-19T12:20:11;96342.19;;;16.31;100.00
55271;BME280;41132;47.162;9.470;2022-08-19T12:22:39;96336.44;;;16.27;100.00
55271;BME280;41132;47.162;9.470;2022-08-19T12:25:08;96343.00;;;16.32;100.00
55271;BME280;41132;47.162;9.470;2022-08-19T12:27:34;96353.00;;;16.36;100.00
55271;BME280;41132;47.162;9.470;2022-08-19T12:30:01;96352.56;;;16.26;100.00
55271;BME280;41132;47.162;9.470;2022-08-19T12:32:27;96347.59;;;16.16;100.00
55271;BME280;41132;47.162;9.470;2022-08-19T12:34:52;96354.56;;;16.24;100.00
55271;BME280;41132;47.162;9.470;2022-08-19T12:37:18;96360.50;;;16.33;100.00
55271;BME280;41132;47.162;9.470;2022-08-19T12:39:43;96349.91;;;16.33;100.00
55271;BME280;41132;47.162;9.470;2022-08-19T12:42:13;96365.22;;;16.31;100.00
55271;BME280;41132;47.162;9.470;2022-08-19T12:44:41;96368.09;;;16.36;100.00
55271;BME280;41132;47.162;9.470;2022-08-19T12:47:07;96371.50;;;16.29;100.00
55271;BME280;41132;47.162;9.470;2022-08-19T12:49:34;96378.88;;;16.34;100.00
55271;BME280;41132;47.162;9.470;2022-08-19T12:52:03;96365.63;;;16.34;100.00
55271;BME280;41132;47.162;9.470;2022-08-19T12:54:28;96379.09;;;16.39;100.00
55271;BME280;41132;47.162;9.470;2022-08-19T12:56:57;96376.22;;;16.34;100.00